sensor_id;sensor_type;location;lat;lon;timestamp;P1;durP1;ratioP1;P2;durP2;ratioP2
35298;SDS011;21415;48.054;16.646;2023-02-23T00:01:14;11.23;;;8.23;;
35298;SDS011;21415;48.054;16.646;2023-02-23T00:03:46;10.93;;;8.45;;
35298;SDS011;21415;48.054;16.646;2023-02-23T00:06:16;11.63;;;8.38;;
35298;SDS011;21415;48.054;16.646;2023-02-23T00:08:45;9.73;;;7.88;;
35298;SDS011;21415;48.054;16.646;2023-02-23T00:11:16;11.50;;;8.02;;
35298;SDS011;21415;48.054;16.646;2023-02-23T00:13:44;10.07;;;8.15;;
35298;SDS011;21415;48.054;16.646;2023-02-23T00:16:21;10.77;;;7.78;;
35298;SDS011;21415;48.054;16.646;2023-02-23T00:18:53;12.93;;;8.48;;
35298;SDS011;21415;48.054;16.646;2023-02-23T00:21:22;12.18;;;8.18;;
35298;SDS011;21415;48.054;16.646;2023-02-23T00:26:17;10.75;;;8.00;;
35298;SDS011;21415;48.054;16.646;2023-02-23T00:28:54;12.05;;;8.23;;
35298;SDS011;21415;48.054;16.646;2023-02-23T00:31:23;12.40;;;8.93;;
35298;SDS011;21415;48.054;16.646;2023-02-23T00:33:51;11.60;;;8.52;;
35298;SDS011;21415;48.054;16.646;2023-02-23T00:36:23;12.18;;;8.98;;
35298;SDS011;21415;48.054;16.646;2023-02-23T00:38:52;12.10;;;8.45;;
35298;SDS011;21415;48.054;16.646;2023-02-23T00:41:22;11.60;;;8.07;;
35298;SDS011;21415;48.054;16.646;2023-02-23T00:43:58;12.38;;;8.25;;
35298;SDS011;21415;48.054;16.646;2023-02-23T00:46:26;11.52;;;8.50;;
35298;SDS011;21415;48.054;16.646;2023-02-23T00:48:54;12.15;;;8.10;;
35298;SDS011;21415;48.054;16.646;2023-02-23T00:51:25;9.80;;;7.57;;
35298;SDS011;21415;48.054;16.646;2023-02-23T00:53:58;10.10;;;7.70;;
35298;SDS011;21415;48.054;16.646;2023-02-23T00:56:25;12.00;;;8.68;;
35298;SDS011;21415;48.054;16.646;2023-02-23T00:58:51;11.60;;;8.50;;
35298;SDS011;21415;48.054;16.646;2023-02-23T01:03:49;9.60;;;6.90;;
35298;SDS011;21415;48.054;16.646;2023-02-23T01:06:18;10.25;;;7.38;;
35298;SDS011;21415;48.054;16.646;2023-02-23T01:08:46;11.52;;;7.43;;
35298;SDS011;21415;48.054;16.646;2023-02-23T01:11:16;10.13;;;7.78;;
35298;SDS011;21415;48.054;16.646;2023-02-23T01:13:45;9.35;;;7.07;;
35298;SDS011;21415;48.054;16.646;2023-02-23T01:16:13;9.82;;;7.00;;
35298;SDS011;21415;48.054;16.646;2023-02-23T01:18:42;11.45;;;7.93;;
35298;SDS011;21415;48.054;16.646;2023-02-23T01:21:20;10.82;;;7.55;;
35298;SDS011;21415;48.054;16.646;2023-02-23T01:23:53;10.30;;;7.30;;
35298;SDS011;21415;48.054;16.646;2023-02-23T01:26:24;10.55;;;7.53;;
35298;SDS011;21415;48.054;16.646;2023-02-23T01:28:56;11.20;;;7.72;;
35298;SDS011;21415;48.054;16.646;2023-02-23T01:31:27;10.90;;;8.23;;
35298;SDS011;21415;48.054;16.646;2023-02-23T01:33:55;10.43;;;7.63;;
35298;SDS011;21415;48.054;16.646;2023-02-23T01:36:25;11.85;;;8.18;;
35298;SDS011;21415;48.054;16.646;2023-02-23T01:39:02;10.63;;;7.75;;
35298;SDS011;21415;48.054;16.646;2023-02-23T01:41:31;9.60;;;7.53;;
35298;SDS011;21415;48.054;16.646;2023-02-23T01:44:06;11.18;;;7.70;;
35298;SDS011;21415;48.054;16.646;2023-02-23T01:46:54;10.75;;;8.07;;
35298;SDS011;21415;48.054;16.646;2023-02-23T01:49:21;11.10;;;7.53;;
35298;SDS011;21415;48.054;16.646;2023-02-23T01:52:02;10.82;;;7.35;;
35298;SDS011;21415;48.054;16.646;2023-02-23T01:54:32;11.15;;;7.72;;
35298;SDS011;21415;48.054;16.646;2023-02-23T01:57:02;10.13;;;7.82;;
35298;SDS011;21415;48.054;16.646;2023-02-23T01:59:32;10.35;;;7.57;;
35298;SDS011;21415;48.054;16.646;2023-02-23T02:02:03;10.15;;;8.15;;
35298;SDS011;21415;48.054;16.646;2023-02-23T02:04:33;10.80;;;7.57;;
35298;SDS011;21415;48.054;16.646;2023-02-23T02:07:20;10.20;;;7.55;;
35298;SDS011;21415;48.054;16.646;2023-02-23T02:09:52;10.93;;;8.10;;
35298;SDS011;21415;48.054;16.646;2023-02-23T02:12:36;10.98;;;7.75;;
35298;SDS011;21415;48.054;16.646;2023-02-23T02:15:08;10.05;;;7.03;;
35298;SDS011;21415;48.054;16.646;2023-02-23T02:17:48;11.18;;;7.90;;
35298;SDS011;21415;48.054;16.646;2023-02-23T02:25:38;12.20;;;8.02;;
35298;SDS011;21415;48.054;16.646;2023-02-23T02:42:50;9.40;;;6.90;;
35298;SDS011;21415;48.054;16.646;2023-02-23T02:46:28;9.50;;;7.32;;
35298;SDS011;21415;48.054;16.646;2023-02-23T02:48:35;10.05;;;7.05;;
35298;SDS011;21415;48.054;16.646;2023-02-23T02:53:57;8.90;;;6.85;;
35298;SDS011;21415;48.054;16.646;2023-02-23T02:56:35;8.80;;;6.43;;
35298;SDS011;21415;48.054;16.646;2023-02-23T02:59:09;7.75;;;6.43;;
35298;SDS011;21415;48.054;16.646;2023-02-23T03:01:59;9.30;;;7.15;;
35298;SDS011;21415;48.054;16.646;2023-02-23T03:04:44;10.07;;;6.85;;
35298;SDS011;21415;48.054;16.646;2023-02-23T03:07:37;10.15;;;7.50;;
35298;SDS011;21415;48.054;16.646;2023-02-23T03:19:25;11.40;;;7.78;;
35298;SDS011;21415;48.054;16.646;2023-02-23T03:22:23;9.00;;;7.40;;
35298;SDS011;21415;48.054;16.646;2023-02-23T03:25:23;10.00;;;6.85;;
35298;SDS011;21415;48.054;16.646;2023-02-23T03:28:17;11.05;;;6.95;;
35298;SDS011;21415;48.054;16.646;2023-02-23T03:31:08;11.05;;;6.47;;
35298;SDS011;21415;48.054;16.646;2023-02-23T03:37:13;10.07;;;7.13;;
35298;SDS011;21415;48.054;16.646;2023-02-23T03:43:11;7.68;;;6.15;;
35298;SDS011;21415;48.054;16.646;2023-02-23T03:46:01;12.45;;;7.28;;
35298;SDS011;21415;48.054;16.646;2023-02-23T03:48:49;9.07;;;6.72;;
35298;SDS011;21415;48.054;16.646;2023-02-23T03:51:37;9.55;;;6.93;;
35298;SDS011;21415;48.054;16.646;2023-02-23T03:54:35;10.57;;;7.13;;
35298;SDS011;21415;48.054;16.646;2023-02-23T03:57:24;9.18;;;6.63;;
35298;SDS011;21415;48.054;16.646;2023-02-23T04:00:15;9.45;;;6.90;;
35298;SDS011;21415;48.054;16.646;2023-02-23T04:03:04;9.90;;;6.15;;
35298;SDS011;21415;48.054;16.646;2023-02-23T04:05:51;9.93;;;6.75;;
35298;SDS011;21415;48.054;16.646;2023-02-23T04:08:38;10.05;;;6.47;;
35298;SDS011;21415;48.054;16.646;2023-02-23T04:11:29;10.30;;;6.72;;
35298;SDS011;21415;48.054;16.646;2023-02-23T04:14:47;11.00;;;6.40;;
35298;SDS011;21415;48.054;16.646;2023-02-23T04:17:29;10.32;;;6.40;;
35298;SDS011;21415;48.054;16.646;2023-02-23T04:19:55;8.85;;;6.72;;
35298;SDS011;21415;48.054;16.646;2023-02-23T04:24:48;8.48;;;5.70;;
35298;SDS011;21415;48.054;16.646;2023-02-23T04:27:17;11.88;;;8.00;;
35298;SDS011;21415;48.054;16.646;2023-02-23T04:29:46;13.30;;;7.53;;
35298;SDS011;21415;48.054;16.646;2023-02-23T04:32:13;10.23;;;6.60;;
35298;SDS011;21415;48.054;16.646;2023-02-23T04:34:41;10.40;;;7.22;;
35298;SDS011;21415;48.054;16.646;2023-02-23T04:37:11;8.73;;;6.65;;
35298;SDS011;21415;48.054;16.646;2023-02-23T04:39:37;9.05;;;6.82;;
35298;SDS011;21415;48.054;16.646;2023-02-23T04:42:03;13.27;;;7.53;;
35298;SDS011;21415;48.054;16.646;2023-02-23T04:44:29;10.38;;;7.10;;
35298;SDS011;21415;48.054;16.646;2023-02-23T04:46:59;9.10;;;6.78;;
35298;SDS011;21415;48.054;16.646;2023-02-23T04:49:26;10.02;;;6.70;;
35298;SDS011;21415;48.054;16.646;2023-02-23T04:51:51;9.10;;;7.07;;
35298;SDS011;21415;48.054;16.646;2023-02-23T04:54:17;9.55;;;6.72;;
35298;SDS011;21415;48.054;16.646;2023-02-23T04:56:43;12.52;;;8.05;;
35298;SDS011;21415;48.054;16.646;2023-02-23T04:59:12;13.52;;;8.23;;
35298;SDS011;21415;48.054;16.646;2023-02-23T05:01:37;10.52;;;7.90;;
35298;SDS011;21415;48.054;16.646;2023-02-23T05:04:03;10.63;;;7.68;;
35298;SDS011;21415;48.054;16.646;2023-02-23T05:06:31;12.00;;;7.50;;
35298;SDS011;21415;48.054;16.646;2023-02-23T05:09:00;11.82;;;7.72;;
35298;SDS011;21415;48.054;16.646;2023-02-23T05:13:53;44.88;;;29.98;;
35298;SDS011;21415;48.054;16.646;2023-02-23T05:16:19;24.77;;;16.67;;
35298;SDS011;21415;48.054;16.646;2023-02-23T05:18:45;17.75;;;10.82;;
35298;SDS011;21415;48.054;16.646;2023-02-23T05:21:11;13.88;;;9.00;;
35298;SDS011;21415;48.054;16.646;2023-02-23T05:23:38;11.13;;;7.75;;
35298;SDS011;21415;48.054;16.646;2023-02-23T05:26:12;10.52;;;7.00;;
35298;SDS011;21415;48.054;16.646;2023-02-23T05:28:46;12.38;;;8.23;;
35298;SDS011;21415;48.054;16.646;2023-02-23T05:31:11;10.82;;;7.85;;
35298;SDS011;21415;48.054;16.646;2023-02-23T05:33:37;11.57;;;8.32;;
35298;SDS011;21415;48.054;16.646;2023-02-23T05:36:14;19.80;;;12.68;;
35298;SDS011;21415;48.054;16.646;2023-02-23T05:38:41;14.05;;;9.35;;
35298;SDS011;21415;48.054;16.646;2023-02-23T05:41:12;12.70;;;8.38;;
35298;SDS011;21415;48.054;16.646;2023-02-23T05:43:45;12.70;;;7.85;;
35298;SDS011;21415;48.054;16.646;2023-02-23T05:46:17;10.18;;;7.30;;
35298;SDS011;21415;48.054;16.646;2023-02-23T05:48:45;12.90;;;6.93;;
35298;SDS011;21415;48.054;16.646;2023-02-23T05:51:12;13.40;;;7.13;;
35298;SDS011;21415;48.054;16.646;2023-02-23T05:53:42;9.35;;;6.57;;
35298;SDS011;21415;48.054;16.646;2023-02-23T05:56:12;9.93;;;6.85;;
35298;SDS011;21415;48.054;16.646;2023-02-23T05:58:48;10.07;;;6.88;;
35298;SDS011;21415;48.054;16.646;2023-02-23T06:01:16;11.25;;;7.15;;
35298;SDS011;21415;48.054;16.646;2023-02-23T06:03:44;11.75;;;6.60;;
35298;SDS011;21415;48.054;16.646;2023-02-23T06:06:10;10.63;;;7.15;;
35298;SDS011;21415;48.054;16.646;2023-02-23T06:08:36;13.52;;;8.68;;
35298;SDS011;21415;48.054;16.646;2023-02-23T06:11:03;11.60;;;6.97;;
35298;SDS011;21415;48.054;16.646;2023-02-23T06:13:30;9.88;;;6.82;;
35298;SDS011;21415;48.054;16.646;2023-02-23T06:15:56;11.65;;;7.47;;
35298;SDS011;21415;48.054;16.646;2023-02-23T06:18:26;10.10;;;6.57;;
35298;SDS011;21415;48.054;16.646;2023-02-23T06:20:53;12.50;;;7.28;;
35298;SDS011;21415;48.054;16.646;2023-02-23T06:23:19;11.48;;;7.22;;
35298;SDS011;21415;48.054;16.646;2023-02-23T06:25:47;15.65;;;9.02;;
35298;SDS011;21415;48.054;16.646;2023-02-23T06:28:13;12.00;;;7.57;;
35298;SDS011;21415;48.054;16.646;2023-02-23T06:30:39;11.05;;;6.82;;
35298;SDS011;21415;48.054;16.646;2023-02-23T06:33:05;10.20;;;6.50;;
35298;SDS011;21415;48.054;16.646;2023-02-23T06:35:32;11.52;;;6.35;;
35298;SDS011;21415;48.054;16.646;2023-02-23T06:37:59;10.10;;;6.50;;
35298;SDS011;21415;48.054;16.646;2023-02-23T06:40:33;10.18;;;6.65;;
35298;SDS011;21415;48.054;16.646;2023-02-23T06:42:59;10.00;;;6.20;;
35298;SDS011;21415;48.054;16.646;2023-02-23T06:45:28;10.50;;;6.28;;
35298;SDS011;21415;48.054;16.646;2023-02-23T06:50:19;9.00;;;5.72;;
35298;SDS011;21415;48.054;16.646;2023-02-23T06:52:45;9.43;;;6.47;;
35298;SDS011;21415;48.054;16.646;2023-02-23T06:55:11;10.60;;;7.05;;
35298;SDS011;21415;48.054;16.646;2023-02-23T06:57:37;9.35;;;5.65;;
35298;SDS011;21415;48.054;16.646;2023-02-23T07:00:03;9.32;;;6.38;;
35298;SDS011;21415;48.054;16.646;2023-02-23T07:02:29;10.95;;;6.53;;
35298;SDS011;21415;48.054;16.646;2023-02-23T07:04:55;11.48;;;6.40;;
35298;SDS011;21415;48.054;16.646;2023-02-23T07:07:22;12.20;;;6.55;;
35298;SDS011;21415;48.054;16.646;2023-02-23T07:09:48;14.18;;;7.90;;
35298;SDS011;21415;48.054;16.646;2023-02-23T07:12:14;13.10;;;7.10;;
35298;SDS011;21415;48.054;16.646;2023-02-23T07:14:49;10.50;;;6.65;;
35298;SDS011;21415;48.054;16.646;2023-02-23T07:17:17;9.90;;;6.85;;
35298;SDS011;21415;48.054;16.646;2023-02-23T07:19:42;11.20;;;6.45;;
35298;SDS011;21415;48.054;16.646;2023-02-23T07:22:08;9.98;;;7.40;;
35298;SDS011;21415;48.054;16.646;2023-02-23T07:24:34;12.32;;;7.50;;
35298;SDS011;21415;48.054;16.646;2023-02-23T07:27:10;11.45;;;6.90;;
35298;SDS011;21415;48.054;16.646;2023-02-23T07:29:35;10.35;;;6.10;;
35298;SDS011;21415;48.054;16.646;2023-02-23T07:32:04;12.90;;;7.82;;
35298;SDS011;21415;48.054;16.646;2023-02-23T07:34:29;11.30;;;7.43;;
35298;SDS011;21415;48.054;16.646;2023-02-23T07:36:55;10.90;;;7.05;;
35298;SDS011;21415;48.054;16.646;2023-02-23T07:39:26;12.98;;;7.15;;
35298;SDS011;21415;48.054;16.646;2023-02-23T07:41:56;11.32;;;8.10;;
35298;SDS011;21415;48.054;16.646;2023-02-23T07:44:22;12.00;;;8.30;;
35298;SDS011;21415;48.054;16.646;2023-02-23T07:46:48;11.88;;;7.75;;
35298;SDS011;21415;48.054;16.646;2023-02-23T07:54:08;10.88;;;6.40;;
35298;SDS011;21415;48.054;16.646;2023-02-23T07:56:36;11.45;;;7.13;;
35298;SDS011;21415;48.054;16.646;2023-02-23T07:59:02;11.65;;;7.32;;
35298;SDS011;21415;48.054;16.646;2023-02-23T08:01:28;11.98;;;8.25;;
35298;SDS011;21415;48.054;16.646;2023-02-23T08:03:54;12.70;;;8.52;;
35298;SDS011;21415;48.054;16.646;2023-02-23T08:06:20;10.43;;;8.38;;
35298;SDS011;21415;48.054;16.646;2023-02-23T08:08:46;11.95;;;8.18;;
35298;SDS011;21415;48.054;16.646;2023-02-23T08:11:17;11.05;;;7.65;;
35298;SDS011;21415;48.054;16.646;2023-02-23T08:13:43;15.45;;;7.70;;
35298;SDS011;21415;48.054;16.646;2023-02-23T08:16:09;9.88;;;7.13;;
35298;SDS011;21415;48.054;16.646;2023-02-23T08:18:36;10.27;;;7.45;;
35298;SDS011;21415;48.054;16.646;2023-02-23T08:21:04;10.48;;;7.03;;
35298;SDS011;21415;48.054;16.646;2023-02-23T08:23:32;12.13;;;7.10;;
35298;SDS011;21415;48.054;16.646;2023-02-23T08:30:55;10.73;;;6.30;;
35298;SDS011;21415;48.054;16.646;2023-02-23T08:33:23;14.38;;;7.35;;
35298;SDS011;21415;48.054;16.646;2023-02-23T08:35:49;10.60;;;7.13;;
35298;SDS011;21415;48.054;16.646;2023-02-23T08:38:17;12.48;;;7.40;;
35298;SDS011;21415;48.054;16.646;2023-02-23T08:40:43;13.20;;;7.70;;
35298;SDS011;21415;48.054;16.646;2023-02-23T08:43:11;9.85;;;7.13;;
35298;SDS011;21415;48.054;16.646;2023-02-23T08:45:42;12.70;;;7.95;;
35298;SDS011;21415;48.054;16.646;2023-02-23T08:48:07;10.25;;;7.38;;
35298;SDS011;21415;48.054;16.646;2023-02-23T08:50:33;9.68;;;6.85;;
35298;SDS011;21415;48.054;16.646;2023-02-23T08:52:59;10.02;;;7.22;;
35298;SDS011;21415;48.054;16.646;2023-02-23T08:55:25;8.57;;;6.97;;
35298;SDS011;21415;48.054;16.646;2023-02-23T08:57:54;10.40;;;6.95;;
35298;SDS011;21415;48.054;16.646;2023-02-23T09:00:22;12.95;;;7.60;;
35298;SDS011;21415;48.054;16.646;2023-02-23T09:02:48;11.02;;;7.43;;
35298;SDS011;21415;48.054;16.646;2023-02-23T09:05:14;10.00;;;7.90;;
35298;SDS011;21415;48.054;16.646;2023-02-23T09:07:44;10.98;;;7.70;;
35298;SDS011;21415;48.054;16.646;2023-02-23T09:10:15;9.52;;;7.38;;
35298;SDS011;21415;48.054;16.646;2023-02-23T09:12:44;10.07;;;6.78;;
35298;SDS011;21415;48.054;16.646;2023-02-23T09:15:10;10.35;;;7.90;;
35298;SDS011;21415;48.054;16.646;2023-02-23T09:17:39;10.25;;;7.50;;
35298;SDS011;21415;48.054;16.646;2023-02-23T09:20:09;11.38;;;7.25;;
35298;SDS011;21415;48.054;16.646;2023-02-23T09:22:41;9.02;;;7.22;;
35298;SDS011;21415;48.054;16.646;2023-02-23T09:25:13;8.25;;;6.80;;
35298;SDS011;21415;48.054;16.646;2023-02-23T09:27:46;11.35;;;7.43;;
35298;SDS011;21415;48.054;16.646;2023-02-23T09:30:16;11.95;;;7.93;;
35298;SDS011;21415;48.054;16.646;2023-02-23T09:32:48;10.45;;;6.97;;
35298;SDS011;21415;48.054;16.646;2023-02-23T09:35:15;10.30;;;6.85;;
35298;SDS011;21415;48.054;16.646;2023-02-23T09:37:57;11.30;;;7.22;;
35298;SDS011;21415;48.054;16.646;2023-02-23T09:40:27;9.52;;;7.55;;
35298;SDS011;21415;48.054;16.646;2023-02-23T09:43:05;12.27;;;8.55;;
35298;SDS011;21415;48.054;16.646;2023-02-23T09:45:37;12.65;;;8.27;;
35298;SDS011;21415;48.054;16.646;2023-02-23T09:48:18;10.13;;;8.20;;
35298;SDS011;21415;48.054;16.646;2023-02-23T09:50:54;11.88;;;8.35;;
35298;SDS011;21415;48.054;16.646;2023-02-23T09:56:14;12.88;;;8.98;;
35298;SDS011;21415;48.054;16.646;2023-02-23T09:58:44;13.60;;;8.30;;
35298;SDS011;21415;48.054;16.646;2023-02-23T10:06:47;13.13;;;9.00;;
35298;SDS011;21415;48.054;16.646;2023-02-23T10:09:52;10.27;;;8.38;;
35298;SDS011;21415;48.054;16.646;2023-02-23T10:12:32;10.90;;;7.95;;
35298;SDS011;21415;48.054;16.646;2023-02-23T10:15:26;11.38;;;8.77;;
35298;SDS011;21415;48.054;16.646;2023-02-23T10:21:04;12.57;;;8.98;;
35298;SDS011;21415;48.054;16.646;2023-02-23T10:23:49;14.27;;;10.18;;
35298;SDS011;21415;48.054;16.646;2023-02-23T10:26:24;13.35;;;9.25;;
35298;SDS011;21415;48.054;16.646;2023-02-23T10:28:54;11.75;;;8.60;;
35298;SDS011;21415;48.054;16.646;2023-02-23T10:34:02;10.50;;;7.60;;
35298;SDS011;21415;48.054;16.646;2023-02-23T10:36:35;10.88;;;8.98;;
35298;SDS011;21415;48.054;16.646;2023-02-23T10:39:08;12.55;;;8.20;;
35298;SDS011;21415;48.054;16.646;2023-02-23T10:41:37;13.02;;;8.82;;
35298;SDS011;21415;48.054;16.646;2023-02-23T10:44:04;11.77;;;8.68;;
35298;SDS011;21415;48.054;16.646;2023-02-23T10:46:39;12.88;;;8.65;;
35298;SDS011;21415;48.054;16.646;2023-02-23T10:49:13;11.02;;;8.13;;
35298;SDS011;21415;48.054;16.646;2023-02-23T10:51:46;12.18;;;8.48;;
35298;SDS011;21415;48.054;16.646;2023-02-23T10:57:02;12.50;;;7.55;;
35298;SDS011;21415;48.054;16.646;2023-02-23T10:59:30;12.07;;;9.18;;
35298;SDS011;21415;48.054;16.646;2023-02-23T11:01:56;13.45;;;9.45;;
35298;SDS011;21415;48.054;16.646;2023-02-23T11:04:23;13.05;;;9.65;;
35298;SDS011;21415;48.054;16.646;2023-02-23T11:09:41;12.32;;;9.07;;
35298;SDS011;21415;48.054;16.646;2023-02-23T11:14:41;11.23;;;8.82;;
35298;SDS011;21415;48.054;16.646;2023-02-23T11:17:08;15.23;;;11.75;;
35298;SDS011;21415;48.054;16.646;2023-02-23T11:19:58;12.68;;;9.77;;
35298;SDS011;21415;48.054;16.646;2023-02-23T11:22:29;12.13;;;8.70;;
35298;SDS011;21415;48.054;16.646;2023-02-23T11:24:57;11.40;;;8.65;;
35298;SDS011;21415;48.054;16.646;2023-02-23T11:27:26;10.63;;;8.10;;
35298;SDS011;21415;48.054;16.646;2023-02-23T11:32:27;10.93;;;8.15;;
35298;SDS011;21415;48.054;16.646;2023-02-23T11:37:40;13.70;;;9.40;;
35298;SDS011;21415;48.054;16.646;2023-02-23T11:40:49;11.23;;;9.02;;
35298;SDS011;21415;48.054;16.646;2023-02-23T11:43:08;12.35;;;9.05;;
35298;SDS011;21415;48.054;16.646;2023-02-23T11:45:50;10.05;;;7.80;;
35298;SDS011;21415;48.054;16.646;2023-02-23T11:48:31;12.05;;;9.05;;
35298;SDS011;21415;48.054;16.646;2023-02-23T11:50:58;12.82;;;9.52;;
35298;SDS011;21415;48.054;16.646;2023-02-23T11:53:29;13.90;;;10.05;;
35298;SDS011;21415;48.054;16.646;2023-02-23T11:55:57;11.05;;;8.40;;
35298;SDS011;21415;48.054;16.646;2023-02-23T12:01:05;13.20;;;8.95;;
35298;SDS011;21415;48.054;16.646;2023-02-23T12:03:56;13.02;;;9.13;;
35298;SDS011;21415;48.054;16.646;2023-02-23T12:06:27;13.18;;;9.52;;
35298;SDS011;21415;48.054;16.646;2023-02-23T12:08:55;14.35;;;9.88;;
35298;SDS011;21415;48.054;16.646;2023-02-23T12:11:27;15.10;;;10.68;;
35298;SDS011;21415;48.054;16.646;2023-02-23T12:17:24;14.38;;;9.73;;
35298;SDS011;21415;48.054;16.646;2023-02-23T12:20:13;16.45;;;10.60;;
35298;SDS011;21415;48.054;16.646;2023-02-23T12:22:54;16.45;;;11.02;;
35298;SDS011;21415;48.054;16.646;2023-02-23T12:25:30;14.07;;;9.68;;
35298;SDS011;21415;48.054;16.646;2023-02-23T12:30:47;14.73;;;9.93;;
35298;SDS011;21415;48.054;16.646;2023-02-23T12:35:58;14.40;;;9.52;;
35298;SDS011;21415;48.054;16.646;2023-02-23T12:41:30;13.98;;;9.75;;
35298;SDS011;21415;48.054;16.646;2023-02-23T12:43:59;14.25;;;10.45;;
35298;SDS011;21415;48.054;16.646;2023-02-23T12:46:38;14.27;;;11.13;;
35298;SDS011;21415;48.054;16.646;2023-02-23T12:52:15;15.65;;;9.43;;
35298;SDS011;21415;48.054;16.646;2023-02-23T12:54:45;13.43;;;10.05;;
35298;SDS011;21415;48.054;16.646;2023-02-23T12:57:22;15.82;;;10.52;;
35298;SDS011;21415;48.054;16.646;2023-02-23T13:08:44;12.20;;;9.90;;
35298;SDS011;21415;48.054;16.646;2023-02-23T13:11:34;14.77;;;11.00;;
35298;SDS011;21415;48.054;16.646;2023-02-23T13:14:27;11.50;;;9.05;;
35298;SDS011;21415;48.054;16.646;2023-02-23T13:16:56;10.93;;;8.95;;
35298;SDS011;21415;48.054;16.646;2023-02-23T13:24:41;12.05;;;8.63;;
35298;SDS011;21415;48.054;16.646;2023-02-23T13:27:14;13.25;;;9.80;;
35298;SDS011;21415;48.054;16.646;2023-02-23T13:29:42;14.52;;;10.15;;
35298;SDS011;21415;48.054;16.646;2023-02-23T13:32:13;15.77;;;10.82;;
35298;SDS011;21415;48.054;16.646;2023-02-23T13:35:00;14.00;;;10.23;;
35298;SDS011;21415;48.054;16.646;2023-02-23T13:56:35;9.68;;;7.88;;
35298;SDS011;21415;48.054;16.646;2023-02-23T13:59:15;11.95;;;7.90;;
35298;SDS011;21415;48.054;16.646;2023-02-23T14:01:45;10.35;;;7.95;;
35298;SDS011;21415;48.054;16.646;2023-02-23T14:04:20;11.05;;;7.93;;
35298;SDS011;21415;48.054;16.646;2023-02-23T14:07:13;11.27;;;8.43;;
35298;SDS011;21415;48.054;16.646;2023-02-23T14:09:48;14.77;;;8.32;;
35298;SDS011;21415;48.054;16.646;2023-02-23T14:14:51;10.38;;;7.45;;
35298;SDS011;21415;48.054;16.646;2023-02-23T14:31:01;10.70;;;8.30;;
35298;SDS011;21415;48.054;16.646;2023-02-23T14:36:28;11.02;;;8.32;;
35298;SDS011;21415;48.054;16.646;2023-02-23T14:38:59;10.70;;;8.65;;
35298;SDS011;21415;48.054;16.646;2023-02-23T14:44:35;12.10;;;8.45;;
35298;SDS011;21415;48.054;16.646;2023-02-23T14:47:07;13.77;;;8.57;;
35298;SDS011;21415;48.054;16.646;2023-02-23T14:49:47;11.15;;;8.73;;
35298;SDS011;21415;48.054;16.646;2023-02-23T14:52:23;12.13;;;8.43;;
35298;SDS011;21415;48.054;16.646;2023-02-23T14:55:08;10.15;;;8.90;;
35298;SDS011;21415;48.054;16.646;2023-02-23T14:57:49;10.68;;;8.15;;
35298;SDS011;21415;48.054;16.646;2023-02-23T15:00:30;9.95;;;7.97;;
35298;SDS011;21415;48.054;16.646;2023-02-23T15:05:29;9.60;;;7.35;;
35298;SDS011;21415;48.054;16.646;2023-02-23T15:08:01;11.45;;;8.25;;
35298;SDS011;21415;48.054;16.646;2023-02-23T15:10:37;14.50;;;9.65;;
35298;SDS011;21415;48.054;16.646;2023-02-23T15:13:10;12.57;;;9.38;;
35298;SDS011;21415;48.054;16.646;2023-02-23T15:15:55;12.95;;;9.00;;
35298;SDS011;21415;48.054;16.646;2023-02-23T15:18:32;14.00;;;10.18;;
35298;SDS011;21415;48.054;16.646;2023-02-23T15:21:06;13.85;;;9.80;;
35298;SDS011;21415;48.054;16.646;2023-02-23T15:23:39;11.32;;;9.30;;
35298;SDS011;21415;48.054;16.646;2023-02-23T15:26:15;12.75;;;8.85;;
35298;SDS011;21415;48.054;16.646;2023-02-23T15:28:44;14.20;;;10.38;;
35298;SDS011;21415;48.054;16.646;2023-02-23T15:31:10;14.60;;;9.82;;
35298;SDS011;21415;48.054;16.646;2023-02-23T15:33:37;14.85;;;10.57;;
35298;SDS011;21415;48.054;16.646;2023-02-23T15:38:41;12.20;;;9.45;;
35298;SDS011;21415;48.054;16.646;2023-02-23T15:41:12;13.27;;;10.40;;
35298;SDS011;21415;48.054;16.646;2023-02-23T15:43:43;11.93;;;9.80;;
35298;SDS011;21415;48.054;16.646;2023-02-23T15:46:11;12.30;;;9.85;;
35298;SDS011;21415;48.054;16.646;2023-02-23T15:48:48;12.07;;;9.30;;
35298;SDS011;21415;48.054;16.646;2023-02-23T15:51:22;12.63;;;9.43;;
35298;SDS011;21415;48.054;16.646;2023-02-23T15:54:02;13.70;;;9.63;;
35298;SDS011;21415;48.054;16.646;2023-02-23T15:59:10;11.88;;;8.30;;
35298;SDS011;21415;48.054;16.646;2023-02-23T16:01:41;12.52;;;9.18;;
35298;SDS011;21415;48.054;16.646;2023-02-23T16:06:38;15.05;;;10.43;;
35298;SDS011;21415;48.054;16.646;2023-02-23T16:14:42;16.40;;;10.20;;
35298;SDS011;21415;48.054;16.646;2023-02-23T16:17:19;14.73;;;9.88;;
35298;SDS011;21415;48.054;16.646;2023-02-23T16:19:57;13.70;;;9.85;;
35298;SDS011;21415;48.054;16.646;2023-02-23T16:22:37;12.02;;;9.13;;
35298;SDS011;21415;48.054;16.646;2023-02-23T16:25:06;12.65;;;9.93;;
35298;SDS011;21415;48.054;16.646;2023-02-23T16:27:35;15.77;;;11.00;;
35298;SDS011;21415;48.054;16.646;2023-02-23T16:30:19;15.32;;;10.02;;
35298;SDS011;21415;48.054;16.646;2023-02-23T16:32:48;18.27;;;9.77;;
35298;SDS011;21415;48.054;16.646;2023-02-23T16:35:32;13.95;;;9.98;;
35298;SDS011;21415;48.054;16.646;2023-02-23T16:38:02;13.25;;;10.50;;
35298;SDS011;21415;48.054;16.646;2023-02-23T16:40:36;15.57;;;10.38;;
35298;SDS011;21415;48.054;16.646;2023-02-23T16:43:03;14.27;;;10.57;;
35298;SDS011;21415;48.054;16.646;2023-02-23T16:45:29;14.45;;;10.82;;
35298;SDS011;21415;48.054;16.646;2023-02-23T16:47:54;15.70;;;10.50;;
35298;SDS011;21415;48.054;16.646;2023-02-23T16:50:26;13.93;;;10.00;;
35298;SDS011;21415;48.054;16.646;2023-02-23T16:52:53;15.07;;;10.77;;
35298;SDS011;21415;48.054;16.646;2023-02-23T16:55:20;16.08;;;10.82;;
35298;SDS011;21415;48.054;16.646;2023-02-23T16:57:55;15.00;;;9.85;;
35298;SDS011;21415;48.054;16.646;2023-02-23T17:00:27;15.65;;;10.60;;
35298;SDS011;21415;48.054;16.646;2023-02-23T17:02:55;16.40;;;10.52;;
35298;SDS011;21415;48.054;16.646;2023-02-23T17:05:24;15.23;;;10.85;;
35298;SDS011;21415;48.054;16.646;2023-02-23T17:07:51;15.25;;;11.27;;
35298;SDS011;21415;48.054;16.646;2023-02-23T17:10:22;13.18;;;10.23;;
35298;SDS011;21415;48.054;16.646;2023-02-23T17:12:54;15.55;;;11.30;;
35298;SDS011;21415;48.054;16.646;2023-02-23T17:15:26;16.13;;;10.80;;
35298;SDS011;21415;48.054;16.646;2023-02-23T17:17:55;12.73;;;9.80;;
35298;SDS011;21415;48.054;16.646;2023-02-23T17:20:24;16.35;;;12.10;;
35298;SDS011;21415;48.054;16.646;2023-02-23T17:22:52;13.05;;;10.32;;
35298;SDS011;21415;48.054;16.646;2023-02-23T17:25:19;19.38;;;10.73;;
35298;SDS011;21415;48.054;16.646;2023-02-23T17:27:48;17.05;;;11.20;;
35298;SDS011;21415;48.054;16.646;2023-02-23T17:30:15;36.75;;;22.45;;
35298;SDS011;21415;48.054;16.646;2023-02-23T17:37:33;17.60;;;12.98;;
35298;SDS011;21415;48.054;16.646;2023-02-23T17:40:11;15.35;;;10.77;;
35298;SDS011;21415;48.054;16.646;2023-02-23T17:42:39;16.48;;;11.27;;
35298;SDS011;21415;48.054;16.646;2023-02-23T17:45:06;15.65;;;11.52;;
35298;SDS011;21415;48.054;16.646;2023-02-23T17:47:33;23.83;;;15.73;;
35298;SDS011;21415;48.054;16.646;2023-02-23T17:50:00;18.25;;;12.80;;
35298;SDS011;21415;48.054;16.646;2023-02-23T17:57:19;16.80;;;10.80;;